Reiffsburg, Indiana
Current Conditions -  °F | °C
As of 9:35 AM on Friday 24 Oct 2014 (Local Time) from KHHG Reporting Station
Overcast Overcast  
Wind Chill: 47°   Ceiling: 3600
Heat Index: 47°   Visibility: 10mi
Dew Point: 43°   Wind: 3mph
Humidity: 87%   Direction: 200°SSW
Pressure: 30.1"   Gusts: NA
Location:  40.7175°N, 85.1549°W
Report Text: KHHG 241335Z AUTO 20003KT 10SM OVC036 08/06 A3010 RMK AO2 T00830063
Loading
Personal Weather Stations






























Interactive Weather Map
Tropical Storm Tracking
New forecast layout! Learn more

10-Day Weather Forecast

Advertisements
Track Severe Weather on mobile